Time;durP1;ratioP1;P1;durP2;ratioP2;P2;SDS_P1;SDS_P2;PMS_P1;PMS_P2;Temp;Humidity;BMP_temperature;BMP_pressure;BME280_temperature;BME280_humidity;BME280_pressure;Samples;Min_cycle;Max_cycle;Signal;HPM_P1;HPM_P2
2022/01/05 10:59:16;;;;;;;;;78.50;64.75;;;;;;;;5107755;27;45499;-44
2022/01/05 11:01:42;;;;;;;;;67.50;54.75;;;;;;;;5090835;27;45876;-43
2022/01/05 11:04:37;;;;;;;;;80.25;67.00;;;;;;;;5081201;27;45491;-40
2022/01/05 11:07:03;;;;;;;;;80.75;68.75;;;;;;;;5089653;27;45551;-38
2022/01/05 11:09:30;;;;;;;;;93.50;74.25;;;;;;;;5101947;27;45525;-38
2022/01/05 11:11:56;;;;;;;;;78.50;69.25;;;;;;;;5109222;27;45866;-40
2022/01/05 11:14:29;;;;;;;;;83.75;67.75;;;;;;;;5088469;27;45824;-40
2022/01/05 11:16:56;;;;;;;;;76.50;65.50;;;;;;;;5091846;27;45464;-39
2022/01/05 11:19:26;;;;;;;;;78.50;67.50;;;;;;;;5098613;27;45579;-41
2022/01/05 11:22:07;;;;;;;;;73.25;63.75;;;;;;;;5111011;27;45453;-39
2022/01/05 11:24:34;;;;;;;;;77.00;66.50;;;;;;;;5108156;27;45542;-40
2022/01/05 11:27:00;;;;;;;;;70.75;53.00;;;;;;;;5111039;27;45491;-40
2022/01/05 11:29:26;;;;;;;;;81.50;67.75;;;;;;;;5087136;27;45559;-40
2022/01/05 11:31:54;;;;;;;;;74.00;63.50;;;;;;;;5093919;27;45624;-39
2022/01/05 11:34:19;;;;;;;;;73.25;59.75;;;;;;;;5094619;27;45500;-39
2022/01/05 11:36:45;;;;;;;;;73.25;59.25;;;;;;;;5090426;27;45484;-39
2022/01/05 11:39:10;;;;;;;;;76.75;63.00;;;;;;;;5088869;27;46001;-39
2022/01/05 11:41:39;;;;;;;;;71.25;57.50;;;;;;;;5099306;27;45489;-40
2022/01/05 11:44:05;;;;;;;;;62.75;47.25;;;;;;;;5110108;27;45489;-40
2022/01/05 11:46:31;;;;;;;;;67.25;56.00;;;;;;;;5109842;27;45676;-39
2022/01/05 11:48:58;;;;;;;;;61.50;44.75;;;;;;;;5103672;27;45386;-39
2022/01/05 11:51:49;;;;;;;;;63.00;49.50;;;;;;;;5092554;27;45960;-39
2022/01/05 11:54:17;;;;;;;;;63.00;47.50;;;;;;;;5100553;27;45446;-39
2022/01/05 11:56:48;;;;;;;;;62.75;49.00;;;;;;;;5094693;27;45483;-40
2022/01/05 11:59:20;;;;;;;;;66.75;51.75;;;;;;;;5102759;27;45516;-39
2022/01/05 12:02:15;;;;;;;;;64.75;53.50;;;;;;;;5102470;27;46053;-39
2022/01/05 12:04:53;;;;;;;;;68.00;56.00;;;;;;;;5077789;27;46971;-39
2022/01/05 12:07:37;;;;;;;;;73.25;65.25;;;;;;;;5108103;27;45487;-40
2022/01/05 12:10:13;;;;;;;;;65.25;49.00;;;;;;;;5063889;27;47474;-39
2022/01/05 12:13:11;;;;;;;;;63.75;48.00;;;;;;;;5086500;27;46027;-40
2022/01/05 12:15:43;;;;;;;;;60.75;46.50;;;;;;;;5037728;27;45537;-39
2022/01/05 12:18:10;;;;;;;;;64.25;50.50;;;;;;;;5092068;27;45484;-39
2022/01/05 12:20:36;;;;;;;;;60.75;45.50;;;;;;;;5090475;27;45657;-39
2022/01/05 12:23:25;;;;;;;;;61.75;48.50;;;;;;;;5091713;27;46155;-39
2022/01/05 12:26:07;;;;;;;;;61.25;48.50;;;;;;;;5089117;27;45482;-39
2022/01/05 12:28:35;;;;;;;;;62.25;48.50;;;;;;;;5089605;27;45637;-39
2022/01/05 12:31:01;;;;;;;;;62.75;48.25;;;;;;;;5095745;27;46207;-39
2022/01/05 12:33:40;;;;;;;;;67.50;53.00;;;;;;;;5080675;27;45514;-39
2022/01/05 12:36:06;;;;;;;;;70.25;58.25;;;;;;;;5091315;27;45482;-46
2022/01/05 12:38:37;;;;;;;;;75.50;64.00;;;;;;;;5095227;27;45366;-43
2022/01/05 12:41:21;;;;;;;;;74.00;59.50;;;;;;;;5095055;27;45498;-43
2022/01/05 12:43:47;;;;;;;;;70.50;58.50;;;;;;;;5095263;27;45366;-43
2022/01/05 12:46:13;;;;;;;;;71.50;62.25;;;;;;;;5086900;27;45336;-48
2022/01/05 12:48:43;;;;;;;;;72.75;61.25;;;;;;;;5095545;27;45791;-44
2022/01/05 12:51:14;;;;;;;;;72.25;61.25;;;;;;;;5095043;27;45340;-46
2022/01/05 12:53:52;;;;;;;;;77.50;63.00;;;;;;;;5097074;27;45924;-44
2022/01/05 12:56:22;;;;;;;;;75.25;64.25;;;;;;;;5095228;27;45651;-47
2022/01/05 12:58:48;;;;;;;;;71.75;62.00;;;;;;;;5095677;27;45867;-43
2022/01/05 13:01:14;;;;;;;;;73.25;61.00;;;;;;;;5095694;27;45858;-46
2022/01/05 13:03:40;;;;;;;;;76.00;64.25;;;;;;;;5095986;27;45978;-45
2022/01/05 13:06:33;;;;;;;;;73.75;64.25;;;;;;;;5094831;27;45477;-46
2022/01/05 13:09:05;;;;;;;;;72.50;60.25;;;;;;;;5091543;27;45434;-45
2022/01/05 13:11:43;;;;;;;;;72.50;61.75;;;;;;;;5094526;27;46020;-44
2022/01/05 13:14:30;;;;;;;;;70.00;57.75;;;;;;;;5094114;27;45517;-44
2022/01/05 13:17:07;;;;;;;;;80.00;71.25;;;;;;;;5084086;27;45468;-50
2022/01/05 13:19:35;;;;;;;;;81.50;68.75;;;;;;;;5094571;27;45454;-44
2022/01/05 13:22:05;;;;;;;;;80.00;69.25;;;;;;;;5094066;27;46007;-45
2022/01/05 13:24:45;;;;;;;;;75.50;66.50;;;;;;;;5095647;27;45501;-48
2022/01/05 13:27:11;;;;;;;;;78.00;67.25;;;;;;;;5095602;27;46596;-50
2022/01/05 13:29:37;;;;;;;;;81.25;71.25;;;;;;;;5095883;27;45473;-50
2022/01/05 13:32:02;;;;;;;;;74.25;66.00;;;;;;;;5095312;27;46269;-45
2022/01/05 13:34:39;;;;;;;;;66.50;49.75;;;;;;;;5095563;27;45516;-43
2022/01/05 13:37:05;;;;;;;;;62.50;48.50;;;;;;;;5095334;27;45461;-44
2022/01/05 13:39:47;;;;;;;;;67.75;51.00;;;;;;;;5095329;27;45430;-44
2022/01/05 13:42:13;;;;;;;;;69.00;51.75;;;;;;;;5095123;27;45909;-41
2022/01/05 13:44:39;;;;;;;;;72.25;52.00;;;;;;;;5095408;27;45479;-45
2022/01/05 13:47:08;;;;;;;;;68.50;52.25;;;;;;;;5095258;27;45364;-45
2022/01/05 13:49:34;;;;;;;;;69.50;53.50;;;;;;;;5095246;27;45438;-45
2022/01/05 13:52:00;;;;;;;;;69.25;49.75;;;;;;;;5095263;27;45699;-45
2022/01/05 13:54:26;;;;;;;;;65.00;49.50;;;;;;;;5093793;27;46037;-47
2022/01/05 13:56:51;;;;;;;;;68.75;49.00;;;;;;;;5095419;27;45412;-44
2022/01/05 13:59:17;;;;;;;;;71.75;55.25;;;;;;;;5085989;27;45556;-44
2022/01/05 14:01:54;;;;;;;;;67.50;54.50;;;;;;;;5087282;27;45416;-43
2022/01/05 14:04:20;;;;;;;;;71.50;59.00;;;;;;;;5094691;27;46089;-43
2022/01/05 14:06:56;;;;;;;;;68.25;53.00;;;;;;;;5095183;27;45415;-48
2022/01/05 14:09:28;;;;;;;;;73.50;58.25;;;;;;;;5094939;27;45418;-46
2022/01/05 14:11:57;;;;;;;;;77.00;62.25;;;;;;;;5095033;27;46075;-46
2022/01/05 14:14:23;;;;;;;;;70.75;58.50;;;;;;;;5094707;27;46039;-45
2022/01/05 14:16:49;;;;;;;;;73.50;57.50;;;;;;;;5080503;27;45467;-45
2022/01/05 14:19:24;;;;;;;;;74.25;61.25;;;;;;;;5074323;28;45505;-42
2022/01/05 14:21:50;;;;;;;;;79.75;64.25;;;;;;;;5080387;27;45429;-44
2022/01/05 14:24:17;;;;;;;;;74.00;61.50;;;;;;;;5094536;27;45492;-45
2022/01/05 14:26:46;;;;;;;;;74.00;59.25;;;;;;;;5094790;27;45370;-46
2022/01/05 14:29:11;;;;;;;;;72.00;57.50;;;;;;;;5085763;27;45492;-45
2022/01/05 14:31:37;;;;;;;;;73.25;58.75;;;;;;;;5073658;27;45449;-45
2022/01/05 14:34:03;;;;;;;;;73.00;59.00;;;;;;;;5074103;27;45433;-43
2022/01/05 14:36:35;;;;;;;;;72.00;52.75;;;;;;;;5074102;27;45587;-44
2022/01/05 14:39:03;;;;;;;;;72.25;54.50;;;;;;;;5074246;27;45516;-44
2022/01/05 14:41:39;;;;;;;;;70.00;58.00;;;;;;;;5073811;27;45418;-44
2022/01/05 14:44:05;;;;;;;;;70.25;57.00;;;;;;;;5074179;27;45367;-43
2022/01/05 14:46:30;;;;;;;;;73.25;60.75;;;;;;;;5072628;28;45554;-47
2022/01/05 14:48:56;;;;;;;;;76.00;61.75;;;;;;;;5074177;28;45576;-45
2022/01/05 14:51:21;;;;;;;;;72.50;58.25;;;;;;;;5073696;28;45601;-46
2022/01/05 14:53:50;;;;;;;;;71.75;63.25;;;;;;;;5073948;27;45473;-45
2022/01/05 14:56:16;;;;;;;;;79.75;72.50;;;;;;;;5073765;27;45526;-46
2022/01/05 14:58:41;;;;;;;;;91.00;72.50;;;;;;;;5090446;27;45482;-48
2022/01/05 15:01:07;;;;;;;;;93.50;78.00;;;;;;;;5094076;27;45746;-47
2022/01/05 15:03:33;;;;;;;;;85.50;75.50;;;;;;;;5093938;27;45432;-48
2022/01/05 15:05:59;;;;;;;;;93.75;83.00;;;;;;;;5094405;27;45511;-45
2022/01/05 15:08:24;;;;;;;;;104.50;91.25;;;;;;;;5094206;27;45540;-45
2022/01/05 15:10:50;;;;;;;;;104.75;88.75;;;;;;;;5094002;27;45518;-46
2022/01/05 15:13:15;;;;;;;;;86.50;76.25;;;;;;;;5094146;27;45829;-44
2022/01/05 15:15:41;;;;;;;;;92.50;79.75;;;;;;;;5093947;27;45414;-45
2022/01/05 15:18:07;;;;;;;;;95.75;80.75;;;;;;;;5094283;27;45344;-46
2022/01/05 15:20:34;;;;;;;;;101.00;88.50;;;;;;;;5093663;27;45532;-45
2022/01/05 15:22:59;;;;;;;;;99.75;86.50;;;;;;;;5094042;27;45871;-45
2022/01/05 15:25:25;;;;;;;;;106.00;88.25;;;;;;;;5093900;27;45477;-43
2022/01/05 15:27:51;;;;;;;;;112.25;94.00;;;;;;;;5093838;27;45682;-44
2022/01/05 15:30:17;;;;;;;;;94.75;85.25;;;;;;;;5093905;27;45665;-48
2022/01/05 15:32:42;;;;;;;;;104.50;87.75;;;;;;;;5093531;27;45477;-43
2022/01/05 15:35:08;;;;;;;;;89.25;77.25;;;;;;;;5094075;27;45489;-48
2022/01/05 15:37:34;;;;;;;;;86.50;74.25;;;;;;;;5093557;27;45491;-43
2022/01/05 15:40:00;;;;;;;;;95.00;78.25;;;;;;;;5093948;27;45501;-44
2022/01/05 15:42:25;;;;;;;;;89.25;75.50;;;;;;;;5093815;27;45423;-43
2022/01/05 15:44:51;;;;;;;;;80.75;73.25;;;;;;;;5095693;27;45408;-47
2022/01/05 15:47:16;;;;;;;;;84.75;72.50;;;;;;;;5097442;27;45503;-44
2022/01/05 15:49:42;;;;;;;;;84.75;69.25;;;;;;;;5097113;27;46041;-48
2022/01/05 15:52:08;;;;;;;;;77.50;64.00;;;;;;;;5097226;27;45730;-44
2022/01/05 15:54:37;;;;;;;;;77.50;68.00;;;;;;;;5097297;27;45351;-46
2022/01/05 15:57:26;;;;;;;;;77.50;63.75;;;;;;;;5097116;27;45451;-44
2022/01/05 16:02:36;;;;;;;;;69.00;53.75;;;;;;;;5094133;27;45445;-47
2022/01/05 16:05:02;;;;;;;;;71.75;56.25;;;;;;;;5097365;27;45423;-46
2022/01/05 16:07:27;;;;;;;;;70.75;55.00;;;;;;;;5097101;27;45505;-43
2022/01/05 16:09:53;;;;;;;;;64.75;47.50;;;;;;;;5096955;27;45627;-46
2022/01/05 16:12:18;;;;;;;;;72.25;56.25;;;;;;;;5097139;27;45345;-46
2022/01/05 16:14:44;;;;;;;;;65.00;53.00;;;;;;;;5096946;27;45436;-49
2022/01/05 16:17:10;;;;;;;;;67.50;53.00;;;;;;;;5097173;27;45445;-48
2022/01/05 16:19:35;;;;;;;;;67.00;52.00;;;;;;;;5096812;27;45901;-47
2022/01/05 16:22:01;;;;;;;;;67.75;53.00;;;;;;;;5096899;27;45432;-46
2022/01/05 16:24:26;;;;;;;;;68.75;53.50;;;;;;;;5097036;27;45425;-44
2022/01/05 16:26:52;;;;;;;;;68.00;53.00;;;;;;;;5096515;27;45416;-46
2022/01/05 16:29:20;;;;;;;;;71.25;55.00;;;;;;;;5096575;27;46057;-50
2022/01/05 16:31:46;;;;;;;;;70.00;54.25;;;;;;;;5096428;27;45343;-45
2022/01/05 16:34:11;;;;;;;;;68.50;53.50;;;;;;;;5096880;27;45310;-43
2022/01/05 16:36:40;;;;;;;;;73.25;55.75;;;;;;;;5096722;27;45627;-46
2022/01/05 16:39:06;;;;;;;;;72.25;50.50;;;;;;;;5096566;27;45402;-46
2022/01/05 16:41:31;;;;;;;;;71.50;52.25;;;;;;;;5096681;27;45555;-42
2022/01/05 16:43:57;;;;;;;;;65.50;49.25;;;;;;;;5096448;27;45461;-44
2022/01/05 16:46:23;;;;;;;;;64.00;49.50;;;;;;;;5096662;27;45531;-46
2022/01/05 16:48:49;;;;;;;;;65.50;51.25;;;;;;;;5095963;27;45810;-46
2022/01/05 16:51:14;;;;;;;;;66.75;51.25;;;;;;;;5096344;27;45520;-44
2022/01/05 16:53:40;;;;;;;;;68.00;51.00;;;;;;;;5096486;27;45496;-47
2022/01/05 16:56:06;;;;;;;;;66.25;50.75;;;;;;;;5096005;27;45499;-49
2022/01/05 17:01:15;;;;;;;;;66.50;48.25;;;;;;;;5095408;27;45500;-48
2022/01/05 17:03:41;;;;;;;;;66.25;49.25;;;;;;;;5095442;27;45621;-47
2022/01/05 17:06:06;;;;;;;;;65.00;50.00;;;;;;;;5095157;27;45357;-47
2022/01/05 17:08:33;;;;;;;;;68.50;50.50;;;;;;;;5095266;27;45820;-49
2022/01/05 17:10:58;;;;;;;;;70.00;50.75;;;;;;;;5094883;27;45490;-49
2022/01/05 17:13:24;;;;;;;;;69.75;50.75;;;;;;;;5095271;27;45402;-47
2022/01/05 17:15:52;;;;;;;;;68.25;55.25;;;;;;;;5090770;27;45375;-47
2022/01/05 17:18:17;;;;;;;;;64.50;49.25;;;;;;;;5073811;27;46003;-50
2022/01/05 17:20:43;;;;;;;;;63.75;46.25;;;;;;;;5074819;27;45386;-47
2022/01/05 17:23:10;;;;;;;;;60.75;48.00;;;;;;;;5074560;27;45456;-50
2022/01/05 17:25:35;;;;;;;;;64.25;49.50;;;;;;;;5074725;28;45364;-47
2022/01/05 17:28:01;;;;;;;;;57.50;43.75;;;;;;;;5073082;27;45398;-50
2022/01/05 17:30:27;;;;;;;;;67.25;50.50;;;;;;;;5074562;27;45450;-48
2022/01/05 17:32:54;;;;;;;;;59.50;48.75;;;;;;;;5074599;27;45403;-48
2022/01/05 17:35:19;;;;;;;;;70.00;51.50;;;;;;;;5074465;27;45612;-47
2022/01/05 17:37:46;;;;;;;;;68.25;51.00;;;;;;;;5074504;27;45588;-48
2022/01/05 17:40:13;;;;;;;;;65.00;50.75;;;;;;;;5074430;27;45472;-48
2022/01/05 17:42:38;;;;;;;;;63.00;48.50;;;;;;;;5074725;27;45381;-49
2022/01/05 17:45:05;;;;;;;;;61.00;44.00;;;;;;;;5073084;27;45559;-49
2022/01/05 17:47:30;;;;;;;;;62.75;46.00;;;;;;;;5063131;27;45925;-52
2022/01/05 17:49:56;;;;;;;;;67.25;50.75;;;;;;;;5073554;27;45604;-53
2022/01/05 17:52:22;;;;;;;;;70.00;52.75;;;;;;;;5077455;27;45545;-45
2022/01/05 17:54:47;;;;;;;;;65.75;49.00;;;;;;;;5094247;27;45524;-51
2022/01/05 17:57:13;;;;;;;;;66.25;48.75;;;;;;;;5076156;27;45394;-51
2022/01/05 17:59:39;;;;;;;;;63.25;48.75;;;;;;;;5091639;27;45407;-52
2022/01/05 18:02:04;;;;;;;;;66.25;49.75;;;;;;;;5071692;27;45753;-48
2022/01/05 18:04:30;;;;;;;;;62.25;50.00;;;;;;;;5090732;27;46077;-51
2022/01/05 18:06:56;;;;;;;;;66.25;50.50;;;;;;;;5093165;27;45505;-48
2022/01/05 18:09:22;;;;;;;;;64.50;49.00;;;;;;;;5093925;27;45419;-48
2022/01/05 18:11:48;;;;;;;;;56.25;45.50;;;;;;;;5085967;27;45511;-50
2022/01/05 18:14:14;;;;;;;;;57.50;45.50;;;;;;;;5083633;27;45486;-51
2022/01/05 18:16:47;;;;;;;;;64.00;45.25;;;;;;;;5082308;27;45456;-47
2022/01/05 18:19:14;;;;;;;;;60.25;46.00;;;;;;;;5081729;27;46207;-51
2022/01/05 18:21:39;;;;;;;;;62.75;47.25;;;;;;;;5080977;27;45458;-51
2022/01/05 18:24:07;;;;;;;;;61.75;47.00;;;;;;;;5081700;27;45526;-50
2022/01/05 18:26:32;;;;;;;;;65.50;48.50;;;;;;;;5083755;27;45526;-50
2022/01/05 18:28:58;;;;;;;;;61.50;48.25;;;;;;;;5088086;27;45657;-50
2022/01/05 18:31:23;;;;;;;;;64.00;50.00;;;;;;;;5089476;27;45441;-48
2022/01/05 18:33:50;;;;;;;;;62.75;49.25;;;;;;;;5088036;27;45518;-47
2022/01/05 18:36:16;;;;;;;;;65.00;48.25;;;;;;;;5086868;27;45999;-49
2022/01/05 18:38:41;;;;;;;;;60.50;46.50;;;;;;;;5087406;27;45731;-48
2022/01/05 18:41:07;;;;;;;;;62.00;47.00;;;;;;;;5084788;27;45423;-49
2022/01/05 18:43:33;;;;;;;;;65.25;48.25;;;;;;;;5085592;27;45485;-48
2022/01/05 18:46:04;;;;;;;;;63.50;46.50;;;;;;;;5085050;27;46237;-54
2022/01/05 18:48:29;;;;;;;;;62.75;48.75;;;;;;;;5082632;27;45693;-47
2022/01/05 18:50:55;;;;;;;;;60.50;48.50;;;;;;;;5084005;27;45609;-49
2022/01/05 18:53:21;;;;;;;;;61.00;48.50;;;;;;;;5085232;27;45597;-49
2022/01/05 18:55:46;;;;;;;;;61.75;48.50;;;;;;;;5069249;27;45400;-51
2022/01/05 18:58:16;;;;;;;;;65.50;47.50;;;;;;;;5057675;27;45530;-51
2022/01/05 19:00:41;;;;;;;;;66.00;48.25;;;;;;;;5062719;27;45512;-52
2022/01/05 19:03:07;;;;;;;;;67.00;49.50;;;;;;;;5060230;27;45454;-50
2022/01/05 19:05:32;;;;;;;;;65.50;48.75;;;;;;;;5065789;27;46485;-52
2022/01/05 19:07:58;;;;;;;;;59.50;46.25;;;;;;;;5071357;27;45455;-51
2022/01/05 19:10:24;;;;;;;;;58.75;43.00;;;;;;;;5065567;27;45754;-50
2022/01/05 19:12:49;;;;;;;;;66.50;49.50;;;;;;;;5066677;27;45784;-47
2022/01/05 19:15:15;;;;;;;;;61.75;47.25;;;;;;;;5071131;27;46111;-48
2022/01/05 19:17:41;;;;;;;;;65.00;47.50;;;;;;;;5068400;27;45382;-47
2022/01/05 19:20:07;;;;;;;;;61.00;47.25;;;;;;;;5069939;27;45520;-52
2022/01/05 19:22:32;;;;;;;;;64.75;49.00;;;;;;;;5071341;27;45633;-48
2022/01/05 19:24:59;;;;;;;;;63.75;46.75;;;;;;;;5070852;27;45382;-46
2022/01/05 19:27:25;;;;;;;;;63.75;47.25;;;;;;;;5066877;27;45597;-53
2022/01/05 19:29:51;;;;;;;;;62.00;46.00;;;;;;;;5061708;27;45436;-46
2022/01/05 19:32:18;;;;;;;;;65.00;49.50;;;;;;;;5071928;27;45403;-48
2022/01/05 19:34:46;;;;;;;;;63.75;49.00;;;;;;;;5069274;27;46094;-52
2022/01/05 19:37:12;;;;;;;;;62.75;45.50;;;;;;;;5069488;27;46015;-52
2022/01/05 19:39:37;;;;;;;;;60.25;46.75;;;;;;;;5074307;27;45721;-49
2022/01/05 19:42:03;;;;;;;;;61.25;46.50;;;;;;;;5078020;27;45469;-51
2022/01/05 19:44:29;;;;;;;;;66.25;46.50;;;;;;;;5074519;28;47901;-50
2022/01/05 19:46:54;;;;;;;;;58.75;46.50;;;;;;;;5076882;27;45528;-47
2022/01/05 19:49:20;;;;;;;;;54.75;43.50;;;;;;;;5076500;27;45304;-48
2022/01/05 19:51:51;;;;;;;;;60.50;46.00;;;;;;;;5071200;28;45676;-52
2022/01/05 19:54:22;;;;;;;;;63.75;48.00;;;;;;;;5076349;27;46354;-48
2022/01/05 19:56:56;;;;;;;;;68.00;46.00;;;;;;;;5076878;27;45373;-50
2022/01/05 19:59:21;;;;;;;;;63.50;48.50;;;;;;;;5097182;27;45504;-50
2022/01/05 20:01:47;;;;;;;;;62.00;46.50;;;;;;;;5097076;27;45568;-52
2022/01/05 20:04:13;;;;;;;;;62.50;48.00;;;;;;;;5096912;27;46100;-52
2022/01/05 20:06:39;;;;;;;;;59.00;44.25;;;;;;;;5091265;27;45591;-47
2022/01/05 20:09:05;;;;;;;;;59.50;45.25;;;;;;;;5086068;27;45508;-47
2022/01/05 20:11:31;;;;;;;;;58.25;46.50;;;;;;;;5085764;27;45634;-50
2022/01/05 20:13:56;;;;;;;;;59.50;44.00;;;;;;;;5074401;27;45495;-46
2022/01/05 20:16:22;;;;;;;;;58.00;44.75;;;;;;;;5072606;27;46547;-51
2022/01/05 20:18:48;;;;;;;;;61.25;45.75;;;;;;;;5084497;27;45580;-49
2022/01/05 20:21:14;;;;;;;;;61.75;47.00;;;;;;;;5077597;27;45564;-48
2022/01/05 20:23:40;;;;;;;;;63.50;47.75;;;;;;;;5091714;27;45390;-48
2022/01/05 20:26:05;;;;;;;;;64.75;47.75;;;;;;;;5095809;27;46031;-48
2022/01/05 20:28:31;;;;;;;;;62.25;47.25;;;;;;;;5096053;27;45383;-51
2022/01/05 20:30:57;;;;;;;;;61.75;44.25;;;;;;;;5095603;27;45710;-50
2022/01/05 20:33:23;;;;;;;;;57.50;44.50;;;;;;;;5096121;27;46133;-48
2022/01/05 20:35:49;;;;;;;;;56.75;42.00;;;;;;;;5096044;27;45553;-51
2022/01/05 20:38:15;;;;;;;;;60.25;44.75;;;;;;;;5095871;27;45748;-50
2022/01/05 20:40:41;;;;;;;;;54.75;41.25;;;;;;;;5096053;27;45597;-48
2022/01/05 20:43:07;;;;;;;;;59.50;44.50;;;;;;;;5095447;27;45670;-49
2022/01/05 20:45:33;;;;;;;;;63.50;44.50;;;;;;;;5095937;27;45413;-51
2022/01/05 20:47:58;;;;;;;;;65.25;48.75;;;;;;;;5095989;27;45421;-49
2022/01/05 20:50:24;;;;;;;;;67.50;48.50;;;;;;;;5095679;27;45512;-48
2022/01/05 20:52:50;;;;;;;;;61.50;46.00;;;;;;;;5085799;27;45999;-48
2022/01/05 20:55:16;;;;;;;;;65.50;46.50;;;;;;;;5091368;27;45367;-48
2022/01/05 20:57:42;;;;;;;;;64.75;48.25;;;;;;;;5078356;27;45584;-49
2022/01/05 21:00:12;;;;;;;;;67.75;50.75;;;;;;;;5067995;27;45532;-49
2022/01/05 21:02:41;;;;;;;;;66.75;49.75;;;;;;;;5064045;27;46404;-48
2022/01/05 21:05:08;;;;;;;;;68.75;51.50;;;;;;;;5065560;27;46014;-47
2022/01/05 21:07:37;;;;;;;;;64.25;48.00;;;;;;;;5065412;27;45386;-48
2022/01/05 21:10:04;;;;;;;;;62.50;46.00;;;;;;;;5060488;28;45539;-49
2022/01/05 21:12:30;;;;;;;;;60.75;47.75;;;;;;;;5057906;27;46021;-45
2022/01/05 21:14:55;;;;;;;;;65.00;47.75;;;;;;;;5072606;27;46463;-47
2022/01/05 21:17:21;;;;;;;;;59.25;44.50;;;;;;;;5071450;27;45580;-50
2022/01/05 21:19:47;;;;;;;;;60.00;45.00;;;;;;;;5069235;27;45745;-48
2022/01/05 21:22:13;;;;;;;;;56.25;42.75;;;;;;;;5066083;27;45443;-49
2022/01/05 21:24:39;;;;;;;;;57.25;42.25;;;;;;;;5063807;27;45471;-51
2022/01/05 21:27:05;;;;;;;;;60.25;44.50;;;;;;;;5062742;27;45773;-51
2022/01/05 21:29:30;;;;;;;;;55.50;42.50;;;;;;;;5072718;27;46319;-51
2022/01/05 21:31:56;;;;;;;;;60.25;45.00;;;;;;;;5066924;27;45439;-52
2022/01/05 21:34:23;;;;;;;;;57.75;45.75;;;;;;;;5060622;27;45581;-48
2022/01/05 21:36:49;;;;;;;;;63.00;47.50;;;;;;;;5063487;27;45453;-48
2022/01/05 21:39:19;;;;;;;;;69.25;50.00;;;;;;;;5067707;27;45738;-48
2022/01/05 21:41:48;;;;;;;;;69.00;48.00;;;;;;;;5068331;27;46217;-52
2022/01/05 21:44:14;;;;;;;;;74.50;53.00;;;;;;;;5064356;27;45518;-48
2022/01/05 21:46:39;;;;;;;;;72.25;51.00;;;;;;;;5063451;27;45553;-50
2022/01/05 21:49:05;;;;;;;;;70.75;52.00;;;;;;;;5064717;27;45363;-49
2022/01/05 21:51:31;;;;;;;;;74.25;57.00;;;;;;;;5074723;27;45853;-51
2022/01/05 21:53:56;;;;;;;;;74.00;53.00;;;;;;;;5070846;27;45446;-51
2022/01/05 21:56:22;;;;;;;;;72.50;51.00;;;;;;;;5062039;28;45554;-49
2022/01/05 21:58:47;;;;;;;;;71.75;51.75;;;;;;;;5063619;27;45458;-48
2022/01/05 22:01:13;;;;;;;;;72.25;53.50;;;;;;;;5061477;28;46969;-52
2022/01/05 22:03:39;;;;;;;;;74.75;52.50;;;;;;;;5067387;27;45730;-48
2022/01/05 22:06:05;;;;;;;;;70.50;51.25;;;;;;;;5069393;27;45394;-48
2022/01/05 22:08:31;;;;;;;;;72.50;52.50;;;;;;;;5067061;27;45452;-54
2022/01/05 22:10:57;;;;;;;;;70.25;50.50;;;;;;;;5066031;27;45491;-48
2022/01/05 22:13:22;;;;;;;;;72.25;51.50;;;;;;;;5065376;27;45502;-47
2022/01/05 22:15:49;;;;;;;;;73.25;55.75;;;;;;;;5062391;27;45533;-51
2022/01/05 22:18:14;;;;;;;;;67.50;50.25;;;;;;;;5070434;27;45547;-50
2022/01/05 22:20:40;;;;;;;;;72.75;52.50;;;;;;;;5065872;27;47521;-50
2022/01/05 22:23:11;;;;;;;;;74.75;53.50;;;;;;;;5065993;27;46025;-54
2022/01/05 22:25:38;;;;;;;;;75.75;57.00;;;;;;;;5063150;27;45446;-51
2022/01/05 22:28:04;;;;;;;;;74.75;54.75;;;;;;;;5059928;27;45387;-47
2022/01/05 22:30:29;;;;;;;;;78.00;60.25;;;;;;;;5066025;27;46053;-48
2022/01/05 22:32:55;;;;;;;;;73.75;57.00;;;;;;;;5066692;27;45487;-50
2022/01/05 22:35:21;;;;;;;;;74.50;54.00;;;;;;;;5070043;27;45487;-48
2022/01/05 22:37:50;;;;;;;;;78.50;58.00;;;;;;;;5066348;27;45493;-51
2022/01/05 22:40:16;;;;;;;;;75.50;57.00;;;;;;;;5064808;27;45705;-53
2022/01/05 22:42:42;;;;;;;;;76.25;57.75;;;;;;;;5059211;27;45424;-51
2022/01/05 22:45:07;;;;;;;;;78.75;59.75;;;;;;;;5063390;27;45535;-52
2022/01/05 22:47:33;;;;;;;;;79.00;59.00;;;;;;;;5068630;27;45376;-52
2022/01/05 22:49:59;;;;;;;;;75.25;53.25;;;;;;;;5065622;27;45433;-48
2022/01/05 22:52:25;;;;;;;;;75.00;55.75;;;;;;;;5059437;27;45508;-51
2022/01/05 22:54:50;;;;;;;;;77.00;59.00;;;;;;;;5061169;27;45438;-51
2022/01/05 22:57:17;;;;;;;;;73.25;54.75;;;;;;;;5062404;27;45524;-50
2022/01/05 22:59:43;;;;;;;;;77.75;61.75;;;;;;;;5066243;28;46502;-48
2022/01/05 23:02:09;;;;;;;;;82.50;64.00;;;;;;;;5067573;27;45761;-49
2022/01/05 23:04:35;;;;;;;;;76.00;58.00;;;;;;;;5065076;27;45619;-48
2022/01/05 23:07:01;;;;;;;;;79.75;60.75;;;;;;;;5061258;27;45968;-49
2022/01/05 23:09:30;;;;;;;;;78.25;60.75;;;;;;;;5061051;27;45925;-50
2022/01/05 23:11:56;;;;;;;;;77.00;52.75;;;;;;;;5067066;27;45565;-48
2022/01/05 23:14:22;;;;;;;;;78.25;58.00;;;;;;;;5064554;27;45524;-51
2022/01/05 23:16:47;;;;;;;;;86.25;64.00;;;;;;;;5065253;27;45430;-49
2022/01/05 23:19:13;;;;;;;;;78.50;60.75;;;;;;;;5063123;27;46363;-52
2022/01/05 23:21:40;;;;;;;;;78.25;56.00;;;;;;;;5058867;27;45932;-49
2022/01/05 23:24:05;;;;;;;;;69.75;48.75;;;;;;;;5065286;27;45465;-49
2022/01/05 23:26:31;;;;;;;;;77.50;61.50;;;;;;;;5069163;27;45359;-49
2022/01/05 23:28:57;;;;;;;;;82.75;59.50;;;;;;;;5066956;27;45999;-48
2022/01/05 23:31:23;;;;;;;;;77.50;57.75;;;;;;;;5073137;28;45376;-49
2022/01/05 23:33:49;;;;;;;;;76.50;57.75;;;;;;;;5070724;27;45509;-45
2022/01/05 23:36:14;;;;;;;;;75.00;52.00;;;;;;;;5074423;27;45355;-51
2022/01/05 23:38:40;;;;;;;;;72.75;53.25;;;;;;;;5072132;27;46124;-48
2022/01/05 23:41:05;;;;;;;;;78.00;58.25;;;;;;;;4951611;27;45480;-53
2022/01/05 23:43:33;;;;;;;;;76.00;56.75;;;;;;;;4826665;28;98879;-45
2022/01/05 23:48:10;;;;;;;;;72.25;54.75;;;;;;;;4221212;32;51171;-50
2022/01/05 23:50:35;;;;;;;;;77.00;60.50;;;;;;;;4954145;28;113650;-48
2022/01/05 23:53:33;;;;;;;;;;;;;;;;;;4138172;32;117843;-51
